This is the latest recevied weather packets stored in our database for station/object ED4YAF-13. If no packets are shown the sender has not sent any weather packets the latest 10 day(s).
| Time | Temp. | Humidity | Pressure | Rain* | Wind** | Luminosity | Snow |
|---|---|---|---|---|---|---|---|
| 1788527594 | 29.44° C | 17% | 1014 hPa | - | - | - | - |
| 1788526689 | 30.56° C | 16% | 1013.3 hPa | - | - | - | - |
| 1788525791 | 30.56° C | 16% | 1013.7 hPa | - | - | - | - |
| 1788524891 | 28.89° C | 17% | 1014.9 hPa | - | - | - | - |
| 1788523989 | 29.44° C | 16% | 1014.5 hPa | - | - | - | - |
| 1788523086 | 29.44° C | 16% | 1014.6 hPa | - | - | - | - |
| 1788522169 | 30° C | 16% | 1014.5 hPa | - | - | - | - |
| 1788521261 | 29.44° C | 17% | 1014.9 hPa | - | - | - | - |
| 1788520361 | 28.33° C | 17% | 1015.6 hPa | - | - | - | - |
| 1788519466 | 28.33° C | 17% | 1015.6 hPa | - | - | - | - |
| 1788518551 | 28.89° C | 17% | 1015.3 hPa | - | - | - | - |
| 1788517656 | 27.78° C | 17% | 1016 hPa | - | - | - | - |
| 1788516751 | 27.22° C | 18% | 1016.7 hPa | - | - | - | - |
| 1788515851 | 27.22° C | 18% | 1016.5 hPa | - | - | - | - |
| 1788514951 | 27.22° C | 20% | 1016.6 hPa | - | - | - | - |
| 1788514051 | 26.11° C | 20% | 1017.4 hPa | - | - | - | - |
| 1788513149 | 25.56° C | 21% | 1017.6 hPa | - | - | - | - |
| 1788512249 | 25.56° C | 21% | 1017.6 hPa | - | - | - | - |
| 1788511340 | 23.89° C | 20% | 1018.4 hPa | - | - | - | - |
| 1788510440 | 23.33° C | 21% | 1018.8 hPa | - | - | - | - |
| 1788509534 | 22.78° C | 22% | 1019.2 hPa | - | - | - | - |
| 1788508633 | 22.22° C | 22% | 1019.7 hPa | - | - | - | - |
| 1788507733 | 21.67° C | 22% | 1019.8 hPa | - | - | - | - |
| 1788506833 | 21.11° C | 22% | 1020 hPa | - | - | - | - |
| 1788505933 | 21.11° C | 22% | 1019.9 hPa | - | - | - | - |
* Rain since midnight (hover to see other rain measurements)
** Current wind speed in m/s (hover to see current wind gust speed)